Time;durP1;ratioP1;P1;durP2;ratioP2;P2;SDS_P1;SDS_P2;PMS_P1;PMS_P2;Temp;Humidity;BMP_temperature;BMP_pressure;BME280_temperature;BME280_humidity;BME280_pressure;Samples;Min_cycle;Max_cycle;Signal;HPM_P1;HPM_P2
2022/06/16 00:01:12;;;;;;;7.37;3.05;;;;;;;14.79;56.38;100436.16;2163844;82;31006;-57
2022/06/16 00:04:14;;;;;;;3.77;2.80;;;;;;;14.76;56.55;100437.23;2163674;81;33225;-58
2022/06/16 00:07:18;;;;;;;6.45;2.60;;;;;;;14.73;56.80;100436.93;2163499;82;30523;-57
2022/06/16 00:10:21;;;;;;;6.05;3.30;;;;;;;14.70;56.89;100429.06;2164027;82;27700;-56
2022/06/16 00:13:23;;;;;;;5.75;3.02;;;;;;;14.67;57.10;100429.23;2148791;82;29849;-56
2022/06/16 00:16:25;;;;;;;5.50;3.10;;;;;;;14.62;57.14;100428.65;2143600;83;32548;-56
2022/06/16 00:19:26;;;;;;;5.50;2.98;;;;;;;14.59;57.13;100423.45;2143429;82;33797;-56
2022/06/16 00:22:28;;;;;;;9.75;3.58;;;;;;;14.55;57.44;100417.89;2162829;81;29140;-57
2022/06/16 00:25:32;;;;;;;5.92;2.98;;;;;;;14.51;57.41;100414.51;2148190;81;27692;-56
2022/06/16 00:28:34;;;;;;;8.15;3.10;;;;;;;14.48;57.30;100401.72;2143406;82;29879;-56
2022/06/16 00:31:36;;;;;;;7.87;3.70;;;;;;;14.44;57.51;100408.65;2143680;82;31055;-57
2022/06/16 00:34:38;;;;;;;8.18;3.75;;;;;;;14.41;57.71;100406.14;2143671;83;34273;-56
2022/06/16 00:37:40;;;;;;;4.75;3.15;;;;;;;14.40;57.94;100407.11;2143578;83;30692;-58
2022/06/16 00:40:42;;;;;;;5.50;3.58;;;;;;;14.37;57.88;100403.28;2143514;83;27665;-56
2022/06/16 00:43:44;;;;;;;6.55;3.00;;;;;;;14.35;57.95;100409.25;2143710;83;29193;-56
2022/06/16 00:46:46;;;;;;;8.40;3.60;;;;;;;14.33;57.93;100394.13;2143619;83;32367;-57
2022/06/16 00:49:51;;;;;;;9.48;3.70;;;;;;;14.31;58.08;100400.13;2143949;83;33471;-57
2022/06/16 00:52:52;;;;;;;5.28;3.50;;;;;;;14.27;57.98;100400.31;2169032;81;30595;-57
2022/06/16 00:55:54;;;;;;;7.40;3.98;;;;;;;14.24;58.08;100393.77;2181474;81;27990;-57
2022/06/16 00:59:02;;;;;;;7.30;3.33;;;;;;;14.21;58.07;100393.09;2181298;81;29821;-57
2022/06/16 01:02:06;;;;;;;6.25;3.40;;;;;;;14.16;58.14;100397.41;2181020;81;31136;-58
2022/06/16 01:05:10;;;;;;;5.37;4.65;;;;;;;14.12;58.33;100403.48;2181181;81;32988;-57
2022/06/16 01:08:12;;;;;;;6.17;3.70;;;;;;;14.08;58.36;100402.43;2180565;81;29689;-58
2022/06/16 01:15:05;;;;;;;7.95;3.72;;;;;;;14.01;59.09;100391.64;2181050;81;29917;-58
2022/06/16 01:18:48;;;;;;;9.90;4.05;;;;;;;13.96;58.91;100388.78;2181224;81;30844;-58
2022/06/16 01:22:14;;;;;;;7.83;5.30;;;;;;;13.94;59.04;100391.16;2168717;81;33333;-58
2022/06/16 01:25:23;;;;;;;8.45;4.42;;;;;;;13.89;59.03;100382.03;2144048;82;29696;-57
2022/06/16 01:29:12;;;;;;;5.95;3.90;;;;;;;13.87;59.41;100387.14;2143849;83;27702;-58
2022/06/16 01:32:34;;;;;;;5.35;3.87;;;;;;;13.82;59.55;100382.89;2143626;83;28470;-58
2022/06/16 01:36:01;;;;;;;5.70;3.83;;;;;;;13.79;59.64;100380.39;2143990;82;31441;-58
2022/06/16 01:39:20;;;;;;;6.05;4.45;;;;;;;13.76;59.58;100385.11;2143606;83;34253;-57
2022/06/16 01:42:32;;;;;;;7.35;4.70;;;;;;;13.71;59.59;100380.47;2142914;82;30638;-58
2022/06/16 01:46:02;;;;;;;7.62;4.62;;;;;;;13.69;59.61;100387.31;2146116;81;27582;-57
2022/06/16 01:49:18;;;;;;;5.78;3.85;;;;;;;13.66;59.96;100384.80;2144127;82;28448;-58
2022/06/16 01:52:25;;;;;;;7.85;3.98;;;;;;;13.62;59.88;100380.56;2142180;83;31392;-57
2022/06/16 01:55:43;;;;;;;7.92;4.08;;;;;;;13.59;59.98;100383.43;2143470;83;33885;-57
2022/06/16 01:58:51;;;;;;;7.42;4.75;;;;;;;13.55;60.15;100379.22;2143627;83;29773;-57
2022/06/16 02:01:58;;;;;;;9.93;4.03;;;;;;;13.51;60.50;100374.02;2143239;82;27814;-58
2022/06/16 02:05:10;;;;;;;8.25;4.25;;;;;;;13.48;60.74;100375.55;2142185;82;28639;-57
2022/06/16 02:08:24;;;;;;;5.67;4.37;;;;;;;13.47;60.55;100379.69;2143798;83;31054;-57
2022/06/16 02:11:32;;;;;;;10.03;4.28;;;;;;;13.44;60.62;100376.68;2143317;82;33761;-57
2022/06/16 02:14:41;;;;;;;5.83;4.03;;;;;;;13.42;61.22;100378.59;2143467;81;29332;-57
2022/06/16 02:17:44;;;;;;;8.13;4.00;;;;;;;13.39;60.85;100380.12;2178080;81;27731;-57
2022/06/16 02:21:00;;;;;;;8.05;4.37;;;;;;;13.37;61.10;100374.81;2180910;81;28669;-56
2022/06/16 02:24:08;;;;;;;6.10;4.35;;;;;;;13.34;60.99;100383.05;2181368;81;32148;-59
2022/06/16 02:27:10;;;;;;;6.70;4.08;;;;;;;13.30;61.06;100381.53;2181229;81;33754;-58
2022/06/16 02:30:13;;;;;;;8.63;4.33;;;;;;;13.27;61.25;100379.48;2181200;81;29502;-57
2022/06/16 02:33:26;;;;;;;7.62;4.58;;;;;;;13.22;61.30;100383.34;2181378;81;27563;-57
2022/06/16 02:36:51;;;;;;;8.53;4.78;;;;;;;13.19;61.41;100382.63;2181515;81;29020;-58
2022/06/16 02:40:10;;;;;;;11.80;4.45;;;;;;;13.15;61.76;100381.11;2110573;84;31681;-58
2022/06/16 02:43:48;;;;;;;8.05;5.08;;;;;;;13.12;61.93;100383.97;2110749;84;33028;-57
2022/06/16 02:47:17;;;;;;;7.53;4.87;;;;;;;13.09;62.10;100380.96;2110416;84;30740;-57
2022/06/16 02:50:57;;;;;;;13.20;4.85;;;;;;;13.09;62.35;100377.42;2110531;84;27670;-57
2022/06/16 02:54:20;;;;;;;7.78;5.22;;;;;;;13.12;62.48;100374.06;2110832;84;28836;-58
2022/06/16 02:57:21;;;;;;;7.42;4.90;;;;;;;13.15;62.69;100367.66;2109677;84;31466;-57
2022/06/16 03:00:28;;;;;;;6.33;4.75;;;;;;;13.19;62.46;100369.18;2110763;84;33773;-57
2022/06/16 03:03:34;;;;;;;10.08;4.70;;;;;;;13.24;62.74;100367.59;2110205;84;30019;-58
2022/06/16 03:06:36;;;;;;;7.47;4.65;;;;;;;13.29;62.69;100365.47;2110455;84;27868;-57
2022/06/16 03:09:42;;;;;;;8.85;5.10;;;;;;;13.35;62.63;100372.69;2110336;84;29254;-57
2022/06/16 03:12:46;;;;;;;9.50;5.60;;;;;;;13.41;62.69;100374.66;2109725;83;30865;-57
2022/06/16 03:15:49;;;;;;;8.43;5.05;;;;;;;13.48;62.86;100372.00;2146390;81;33163;-57
2022/06/16 03:18:52;;;;;;;9.83;5.05;;;;;;;13.53;62.63;100369.88;2156140;82;28806;-57
2022/06/16 03:21:56;;;;;;;8.98;5.03;;;;;;;13.60;62.76;100370.36;2156160;82;27672;-57
2022/06/16 03:24:58;;;;;;;13.50;5.97;;;;;;;13.66;62.57;100374.88;2155469;81;28699;-57
2022/06/16 03:28:00;;;;;;;10.05;5.08;;;;;;;13.78;62.62;100367.88;2191764;81;31068;-57
2022/06/16 03:31:03;;;;;;;8.50;5.45;;;;;;;13.92;62.69;100372.88;2189062;81;33613;-57
2022/06/16 03:34:06;;;;;;;9.95;5.25;;;;;;;14.03;62.73;100360.97;2155591;82;30732;-57
2022/06/16 03:37:09;;;;;;;8.30;5.42;;;;;;;14.19;62.54;100358.65;2122439;82;27729;-57
2022/06/16 03:40:13;;;;;;;8.18;4.12;;;;;;;14.36;62.38;100361.12;2118636;84;29902;-58
2022/06/16 03:43:16;;;;;;;13.57;5.97;;;;;;;14.53;62.16;100355.12;2154002;82;31228;-57
2022/06/16 03:46:19;;;;;;;7.47;4.65;;;;;;;14.71;62.00;100348.55;2153978;82;33594;-57
2022/06/16 03:49:21;;;;;;;10.20;5.22;;;;;;;14.91;61.84;100346.83;2153979;82;29327;-57
2022/06/16 03:52:23;;;;;;;8.73;5.22;;;;;;;15.08;61.64;100352.42;2153830;82;27630;-58
2022/06/16 03:55:26;;;;;;;12.07;4.97;;;;;;;15.25;61.54;100348.08;2154141;82;29413;-57
2022/06/16 03:58:28;;;;;;;12.50;5.00;;;;;;;15.42;61.36;100356.39;2127061;82;31973;-57
2022/06/16 04:01:31;;;;;;;11.25;5.67;;;;;;;15.56;61.02;100346.45;2153610;82;34199;-58
2022/06/16 04:04:33;;;;;;;12.53;5.47;;;;;;;15.63;60.77;100339.66;2156751;81;30104;-57
2022/06/16 04:07:38;;;;;;;11.80;6.08;;;;;;;15.72;60.70;100341.70;2156340;81;27684;-58
2022/06/16 04:10:42;;;;;;;10.88;5.67;;;;;;;15.77;60.52;100342.72;2156451;82;29546;-58
2022/06/16 04:13:45;;;;;;;11.93;6.40;;;;;;;15.85;60.41;100335.42;2151952;82;31091;-57
2022/06/16 04:16:52;;;;;;;10.85;5.55;;;;;;;15.90;60.32;100336.84;2146202;83;34172;-57
2022/06/16 04:20:12;;;;;;;11.28;5.55;;;;;;;16.05;60.35;100338.09;2146571;82;29522;-57
2022/06/16 04:23:15;;;;;;;15.40;6.37;;;;;;;16.24;60.23;100334.41;2146503;83;27716;-57
2022/06/16 04:26:18;;;;;;;13.85;6.00;;;;;;;16.41;59.99;100336.36;2146250;83;29706;-58
2022/06/16 04:29:21;;;;;;;8.88;6.05;;;;;;;16.63;59.96;100324.81;2146548;82;31087;-57
2022/06/16 04:32:26;;;;;;;9.18;6.50;;;;;;;16.91;59.84;100329.51;2146619;82;33583;-57
2022/06/16 04:35:29;;;;;;;9.93;6.20;;;;;;;17.05;59.42;100297.84;2186147;80;30498;-57
2022/06/16 04:38:31;;;;;;;12.53;6.12;;;;;;;17.52;59.41;100315.45;2164192;80;27699;-58
2022/06/16 04:41:35;;;;;;;11.55;6.55;;;;;;;17.84;58.92;100306.09;2163741;82;29999;-58
2022/06/16 04:44:39;;;;;;;9.88;5.83;;;;;;;18.10;58.33;100311.30;2163995;82;31856;-57
2022/06/16 04:47:41;;;;;;;11.08;6.58;;;;;;;18.48;58.75;100304.55;2164236;82;33068;-58
2022/06/16 04:50:46;;;;;;;11.75;6.42;;;;;;;19.10;58.09;100308.05;2163871;82;30221;-57
2022/06/16 04:53:48;;;;;;;;;;;;;;;20.06;56.54;100301.08;2166708;82;27697;-58
2022/06/16 04:56:52;;;;;;;9.43;5.55;;;;;;;20.90;55.87;100294.39;2163504;82;28844;-58
2022/06/16 04:59:56;;;;;;;10.83;6.33;;;;;;;22.06;54.16;100282.97;2164088;82;31017;-58
2022/06/16 05:02:58;;;;;;;14.17;6.63;;;;;;;22.99;53.71;100284.14;2164104;82;33187;-58
2022/06/16 05:06:04;;;;;;;11.35;6.20;;;;;;;24.26;52.46;100280.48;2188574;80;29774;-58
2022/06/16 05:09:07;;;;;;;11.85;5.62;;;;;;;25.42;49.77;100277.87;2202113;80;27690;-58
2022/06/16 05:12:10;;;;;;;7.55;5.20;;;;;;;26.37;48.92;100267.08;2201841;80;28693;-58
2022/06/16 05:15:12;;;;;;;9.23;5.60;;;;;;;27.23;48.14;100267.49;2201997;80;32002;-58
2022/06/16 05:18:14;;;;;;;11.75;6.30;;;;;;;28.05;45.54;100269.34;2175839;80;33345;-59
2022/06/16 05:21:16;;;;;;;7.33;5.08;;;;;;;28.46;44.72;100261.61;2201607;80;30546;-58
2022/06/16 05:24:21;;;;;;;9.45;6.10;;;;;;;28.45;42.98;100265.41;2165816;80;27717;-58
2022/06/16 05:27:27;;;;;;;12.18;6.40;;;;;;;28.76;42.19;100257.38;2163449;82;29539;-59
2022/06/16 05:30:30;;;;;;;11.65;6.10;;;;;;;28.77;42.37;100259.92;2163910;82;31108;-59
2022/06/16 05:33:34;;;;;;;7.80;5.50;;;;;;;29.13;41.83;100258.11;2163519;82;33705;-59
2022/06/16 05:36:36;;;;;;;11.50;5.78;;;;;;;29.37;40.34;100255.45;2163959;82;29680;-59
2022/06/16 05:39:40;;;;;;;10.58;5.45;;;;;;;29.84;40.13;100264.58;2163909;82;27728;-59
2022/06/16 05:42:41;;;;;;;11.38;5.65;;;;;;;30.17;40.03;100261.15;2164062;82;28634;-60
2022/06/16 05:45:43;;;;;;;10.55;5.67;;;;;;;30.57;39.16;100258.52;2163613;82;32238;-59
2022/06/16 05:48:49;;;;;;;11.73;5.60;;;;;;;30.74;38.24;100256.73;2139211;82;33146;-59
2022/06/16 05:51:51;;;;;;;7.72;4.80;;;;;;;30.34;37.99;100252.48;2168455;80;29321;-59
2022/06/16 05:54:54;;;;;;;6.70;4.50;;;;;;;30.14;37.85;100249.96;2201780;80;28236;-59
2022/06/16 05:57:56;;;;;;;8.60;5.40;;;;;;;30.38;37.43;100246.84;2202121;80;28731;-59
2022/06/16 06:00:58;;;;;;;8.48;5.53;;;;;;;30.64;37.10;100251.61;2202155;80;30805;-59
2022/06/16 06:04:01;;;;;;;9.55;4.90;;;;;;;31.03;36.64;100252.72;2202094;80;33121;-59
2022/06/16 06:07:04;;;;;;;7.33;4.03;;;;;;;31.26;36.32;100249.23;2202550;80;29657;-59
2022/06/16 06:16:55;;;;;;;6.50;3.93;;;;;;;31.30;34.83;100251.34;2181189;81;32159;-59
2022/06/16 06:19:57;;;;;;;8.05;4.42;;;;;;;31.61;35.14;100254.50;2181360;81;32927;-58
2022/06/16 06:23:00;;;;;;;7.42;4.17;;;;;;;32.03;34.70;100259.72;2161435;81;30496;-59
2022/06/16 06:26:01;;;;;;;8.23;4.10;;;;;;;32.24;34.58;100251.63;2144102;81;27581;-59
2022/06/16 06:29:04;;;;;;;9.30;4.28;;;;;;;32.69;33.95;100249.36;2143996;82;29060;-59
2022/06/16 06:32:07;;;;;;;5.95;4.28;;;;;;;33.07;33.18;100242.05;2143512;83;31884;-59
2022/06/16 06:35:11;;;;;;;6.20;3.95;;;;;;;33.77;32.99;100240.95;2143616;83;33806;-59
2022/06/16 06:38:14;;;;;;;7.95;4.50;;;;;;;34.65;32.35;100241.52;2143998;82;29329;-59
2022/06/16 06:41:17;;;;;;;11.80;4.47;;;;;;;35.47;31.99;100233.54;2144346;82;27708;-59
2022/06/16 06:44:19;;;;;;;7.22;4.40;;;;;;;35.71;31.01;100231.56;2144170;83;29618;-59
2022/06/16 06:47:25;;;;;;;5.78;4.28;;;;;;;35.83;30.45;100237.12;2143524;83;31630;-60
2022/06/16 06:50:32;;;;;;;8.45;4.00;;;;;;;36.01;30.12;100231.11;2143858;82;33360;-60
2022/06/16 06:53:36;;;;;;;4.85;4.25;;;;;;;35.98;29.79;100227.41;2172921;81;27666;-60
2022/06/16 06:56:38;;;;;;;13.40;4.12;;;;;;;36.28;29.04;100225.78;2180972;81;27687;-60
2022/06/16 06:59:40;;;;;;;6.60;3.87;;;;;;;36.30;28.83;100219.41;2181225;81;28885;-60
2022/06/16 07:02:42;;;;;;;7.75;3.60;;;;;;;36.09;28.88;100222.89;2181146;81;31855;-59
2022/06/16 07:05:44;;;;;;;4.25;3.12;;;;;;;35.67;28.75;100225.34;2180899;81;33016;-59
2022/06/16 07:08:47;;;;;;;6.12;3.60;;;;;;;35.46;28.78;100219.86;2180817;81;30079;-60
2022/06/16 07:11:53;;;;;;;4.22;3.30;;;;;;;35.09;28.85;100218.99;2180903;81;27695;-60
2022/06/16 07:14:54;;;;;;;5.00;3.27;;;;;;;35.14;28.93;100216.87;2176673;80;28697;-60
2022/06/16 07:17:59;;;;;;;8.80;3.83;;;;;;;35.24;28.96;100217.13;2170644;82;32356;-59
2022/06/16 07:21:01;;;;;;;5.67;2.95;;;;;;;35.55;28.60;100219.25;2143380;82;33037;-59
2022/06/16 07:24:04;;;;;;;5.33;3.20;;;;;;;35.92;27.94;100219.98;2135413;82;30278;-60
2022/06/16 07:27:08;;;;;;;8.85;3.37;;;;;;;35.79;28.02;100215.56;2158653;82;27755;-59
2022/06/16 07:30:15;;;;;;;5.25;3.17;;;;;;;35.49;27.81;100214.64;2171597;82;28646;-59
2022/06/16 07:33:17;;;;;;;6.95;2.90;;;;;;;35.68;28.35;100213.94;2171112;82;32354;-59
2022/06/16 07:36:20;;;;;;;5.37;3.40;;;;;;;36.09;28.17;100220.10;2171032;82;33361;-59
2022/06/16 07:39:22;;;;;;;5.47;3.47;;;;;;;36.35;27.82;100218.66;2171482;82;29414;-60
2022/06/16 07:42:24;;;;;;;3.12;2.85;;;;;;;36.54;27.87;100218.47;2171389;82;27679;-60
2022/06/16 07:45:29;;;;;;;4.87;2.80;;;;;;;36.38;27.43;100220.95;2171159;82;29855;-59
2022/06/16 07:48:31;;;;;;;4.70;3.33;;;;;;;36.20;27.62;100221.98;2171381;82;31223;-60
2022/06/16 07:51:34;;;;;;;7.15;3.10;;;;;;;36.16;27.79;100223.58;2163881;82;34181;-60
2022/06/16 07:54:36;;;;;;;5.95;3.22;;;;;;;35.95;27.60;100210.64;2133994;83;29531;-59
2022/06/16 07:57:45;;;;;;;4.20;3.10;;;;;;;35.43;27.41;100212.27;2134074;83;27609;-60
2022/06/16 08:00:47;;;;;;;3.87;2.58;;;;;;;34.90;27.89;100205.70;2134258;83;28636;-59
2022/06/16 08:03:50;;;;;;;6.67;2.77;;;;;;;34.69;28.36;100204.31;2134573;83;31788;-59
2022/06/16 08:06:52;;;;;;;3.25;2.80;;;;;;;34.66;28.70;100204.82;2134109;83;33823;-59
2022/06/16 08:09:54;;;;;;;5.65;2.83;;;;;;;34.58;28.63;100207.41;2134332;83;29677;-60
2022/06/16 08:12:56;;;;;;;4.35;2.85;;;;;;;34.67;28.90;100207.35;2134141;83;27681;-59
2022/06/16 08:15:58;;;;;;;6.80;2.77;;;;;;;34.68;28.84;100211.83;2134030;81;29849;-59
2022/06/16 08:19:01;;;;;;;4.97;2.70;;;;;;;34.72;28.64;100208.58;2134126;83;32256;-59
2022/06/16 08:22:15;;;;;;;6.53;3.77;;;;;;;34.67;28.58;100210.14;2148161;82;33868;-59
2022/06/16 08:25:19;;;;;;;3.65;3.20;;;;;;;34.52;28.71;100211.13;2170947;82;29881;-58
2022/06/16 08:28:22;;;;;;;6.87;3.62;;;;;;;34.37;28.93;100211.00;2143258;82;27699;-60
2022/06/16 08:31:25;;;;;;;6.78;2.65;;;;;;;34.30;29.19;100203.84;2171121;82;33713;-60
2022/06/16 08:34:27;;;;;;;9.93;2.90;;;;;;;34.27;29.27;100207.08;2171340;82;32376;-59
2022/06/16 08:37:29;;;;;;;5.80;3.10;;;;;;;34.30;29.30;100212.18;2171344;82;33744;-58
2022/06/16 08:40:34;;;;;;;6.50;2.77;;;;;;;34.36;29.07;100220.42;2171094;82;30637;-58
2022/06/16 08:43:39;;;;;;;5.40;3.35;;;;;;;34.39;29.06;100221.88;2171019;82;27714;-59
2022/06/16 08:46:46;;;;;;;3.17;2.70;;;;;;;34.35;29.27;100220.11;2170244;82;28709;-59
2022/06/16 08:50:15;;;;;;;6.20;3.02;;;;;;;34.61;29.40;100222.77;2092344;85;32157;-59
2022/06/16 08:53:41;;;;;;;13.65;3.22;;;;;;;34.95;28.89;100218.37;2064260;85;33453;-61
2022/06/16 08:56:58;;;;;;;12.30;2.80;;;;;;;35.24;29.04;100224.63;2057364;86;29861;-61
2022/06/16 09:00:14;;;;;;;4.03;3.10;;;;;;;35.56;28.84;100221.48;2057729;86;27660;-59
2022/06/16 09:03:41;;;;;;;6.35;2.85;;;;;;;36.12;28.72;100223.23;2057835;86;29442;-60
2022/06/16 09:06:51;;;;;;;6.22;3.12;;;;;;;36.61;28.18;100217.21;2057652;86;31386;-59
2022/06/16 09:10:16;;;;;;;4.00;2.95;;;;;;;36.71;27.35;100217.08;2057624;86;32961;-60
2022/06/16 09:14:00;;;;;;;6.55;3.15;;;;;;;36.46;27.10;100214.15;2058612;86;29341;-59
2022/06/16 09:17:10;;;;;;;5.33;2.65;;;;;;;36.36;27.44;100209.19;2053916;86;27759;-59
2022/06/16 09:20:41;;;;;;;4.78;3.17;;;;;;;36.18;27.14;100217.20;1999119;89;28871;-58
2022/06/16 09:23:55;;;;;;;5.35;2.65;;;;;;;35.96;27.15;100212.33;2007019;86;31054;-59
2022/06/16 09:27:18;;;;;;;8.63;2.98;;;;;;;35.68;27.25;100208.92;2028970;86;33697;-58
2022/06/16 09:30:24;;;;;;;6.40;2.85;;;;;;;35.47;27.29;100216.83;2094894;84;29314;-58
2022/06/16 09:33:31;;;;;;;4.42;2.90;;;;;;;35.36;27.15;100215.70;2102402;84;27701;-60
2022/06/16 09:36:38;;;;;;;3.35;2.62;;;;;;;35.16;27.20;100212.47;2101702;84;29188;-61
2022/06/16 09:39:44;;;;;;;6.97;3.77;;;;;;;34.89;27.25;100214.28;2093615;83;31242;-59
2022/06/16 09:42:57;;;;;;;3.75;2.60;;;;;;;34.65;27.55;100214.25;2092992;82;33781;-58
2022/06/16 09:46:10;;;;;;;24.82;3.85;;;;;;;34.66;27.36;100211.22;2087636;83;29417;-59
2022/06/16 09:49:16;;;;;;;;;;;;;;;34.68;27.83;100210.44;2096152;82;27876;-58
2022/06/16 09:52:26;;;;;;;3.40;3.10;;;;;;;34.71;27.69;100206.32;2033837;85;28731;-59
2022/06/16 09:55:36;;;;;;;3.87;2.95;;;;;;;34.68;27.41;100199.31;2064346;84;31165;-60
2022/06/16 09:58:52;;;;;;;3.50;2.52;;;;;;;34.68;27.24;100201.23;2075530;84;32960;-64
2022/06/16 10:01:58;;;;;;;5.67;3.12;;;;;;;34.41;27.11;100200.23;2067518;84;30333;-60
2022/06/16 10:05:00;;;;;;;5.60;3.02;;;;;;;34.20;27.71;100203.02;2087596;84;27742;-60
2022/06/16 10:08:26;;;;;;;2.62;2.42;;;;;;;33.92;27.73;100205.86;2038381;85;29521;-59
2022/06/16 10:11:51;;;;;;;4.28;2.60;;;;;;;33.69;28.07;100207.90;2005758;88;31478;-58
2022/06/16 10:15:08;;;;;;;3.00;2.60;;;;;;;33.50;27.82;100207.92;2039218;85;34336;-59
2022/06/16 10:18:11;;;;;;;5.05;2.67;;;;;;;33.39;27.93;100198.95;2011318;87;30642;-64
2022/06/16 10:21:15;;;;;;;2.87;2.33;;;;;;;33.29;27.43;100200.83;2026401;87;28233;-61
2022/06/16 10:24:18;;;;;;;3.85;2.80;;;;;;;33.17;28.32;100202.98;2075548;84;29239;-60
2022/06/16 10:27:22;;;;;;;4.65;2.50;;;;;;;33.15;28.27;100202.91;2091873;84;31134;-60
2022/06/16 10:30:29;;;;;;;4.35;2.62;;;;;;;33.08;28.11;100205.76;2090739;83;34408;-59
2022/06/16 10:33:36;;;;;;;3.85;2.30;;;;;;;33.06;28.54;100209.30;2087458;84;30367;-60
2022/06/16 10:36:38;;;;;;;4.40;2.72;;;;;;;33.05;28.40;100206.73;2083203;84;27633;-59
2022/06/16 10:39:55;;;;;;;5.08;2.60;;;;;;;32.91;28.19;100208.24;2080664;84;29767;-59
2022/06/16 10:43:13;;;;;;;4.45;2.70;;;;;;;32.72;27.96;100199.82;2083360;84;31260;-62
2022/06/16 10:46:26;;;;;;;3.85;2.10;;;;;;;32.70;28.20;100199.75;2066602;83;33064;-58
2022/06/16 10:49:38;;;;;;;4.25;2.22;;;;;;;32.70;28.21;100196.42;2100430;82;29681;-59
2022/06/16 10:52:41;;;;;;;2.62;2.25;;;;;;;32.72;27.99;100198.98;2112686;82;27705;-59
2022/06/16 10:55:46;;;;;;;3.37;2.67;;;;;;;32.69;28.16;100203.04;2101562;84;28666;-58
2022/06/16 10:59:02;;;;;;;2.50;2.02;;;;;;;32.66;28.15;100205.42;2140165;82;32466;-59
2022/06/16 11:02:21;;;;;;;6.28;2.90;;;;;;;32.60;28.76;100212.72;2123495;82;33865;-59
2022/06/16 11:05:23;;;;;;;7.12;3.52;;;;;;;32.57;27.21;100210.39;2093035;82;29330;-61
2022/06/16 11:08:36;;;;;;;25.32;11.90;;;;;;;32.21;28.31;100209.09;2099057;82;27653;-61
2022/06/16 11:11:54;;;;;;;6.90;3.95;;;;;;;32.04;27.91;100207.38;2130660;82;29908;-61
2022/06/16 11:15:07;;;;;;;3.17;2.40;;;;;;;31.90;27.84;100214.38;2132462;81;31844;-60
2022/06/16 11:18:13;;;;;;;6.17;2.85;;;;;;;31.60;28.25;100205.19;2139089;81;33041;-60
2022/06/16 11:21:23;;;;;;;6.25;2.92;;;;;;;31.49;28.67;100202.55;2091077;82;29382;-60
2022/06/16 11:24:30;;;;;;;4.95;2.87;;;;;;;31.49;28.89;100200.30;2115804;82;27701;-60
2022/06/16 11:27:43;;;;;;;4.12;2.95;;;;;;;31.49;29.27;100192.00;2141952;82;28644;-61
2022/06/16 11:30:53;;;;;;;5.10;2.80;;;;;;;31.31;29.10;100192.15;2133678;82;31012;-60
2022/06/16 11:34:20;;;;;;;4.80;2.62;;;;;;;31.13;29.34;100198.84;2134439;82;32956;-60
2022/06/16 11:37:48;;;;;;;5.05;2.77;;;;;;;30.93;29.71;100206.66;2121107;81;30190;-59
2022/06/16 11:40:58;;;;;;;6.47;2.75;;;;;;;30.67;29.92;100219.39;2138270;80;28265;-59
2022/06/16 11:44:20;;;;;;;13.60;5.20;;;;;;;30.26;30.38;100219.82;2110360;84;29016;-61
2022/06/16 11:47:30;;;;;;;45.23;6.90;;;;;;;29.41;36.02;100232.47;2137183;82;31702;-62
2022/06/16 11:51:04;;;;;;;16.77;5.70;;;;;;;26.54;56.71;100238.47;2055258;85;32980;-70
2022/06/16 11:54:38;;;;;;;12.88;6.50;;;;;;;24.27;61.39;100267.14;2033299;87;29401;-75
2022/06/16 11:58:15;;;;;;;12.00;5.30;;;;;;;22.81;62.66;100262.32;2073882;85;27686;-62
2022/06/16 12:01:40;;;;;;;12.15;5.97;;;;;;;22.04;64.58;100263.17;1988831;88;29714;-59
2022/06/16 12:05:16;;;;;;;7.83;3.72;;;;;;;21.26;65.14;100286.95;1998660;88;31120;-58
2022/06/16 12:08:44;;;;;;;7.97;3.80;;;;;;;20.39;65.49;100270.45;1997892;88;34381;-58
2022/06/16 12:12:01;;;;;;;5.22;3.95;;;;;;;19.44;67.66;100289.68;1997177;88;30572;-58
2022/06/16 12:15:27;;;;;;;12.33;3.17;;;;;;;18.91;68.50;100337.23;1992551;88;27765;-58
2022/06/16 12:18:56;;;;;;;6.97;3.33;;;;;;;18.42;68.92;100382.39;1995113;88;30016;-58
2022/06/16 12:22:06;;;;;;;11.97;3.55;;;;;;;18.02;70.10;100371.56;1994918;88;31057;-61
2022/06/16 12:25:22;;;;;;;13.75;4.70;;;;;;;17.86;71.38;100362.90;1993203;88;33142;-59
2022/06/16 12:28:59;;;;;;;7.40;4.70;;;;;;;17.81;72.79;100360.53;1992818;87;29481;-60
2022/06/16 12:32:42;;;;;;;6.65;4.37;;;;;;;17.67;77.90;100352.63;1952808;90;27852;-59
2022/06/16 12:35:55;;;;;;;6.10;4.37;;;;;;;17.70;78.36;100336.14;2012712;86;28708;-60
2022/06/16 12:39:09;;;;;;;5.10;3.30;;;;;;;17.69;77.89;100293.77;2026574;85;31712;-59
2022/06/16 12:42:16;;;;;;;4.97;3.77;;;;;;;17.85;78.38;100278.00;2031871;85;34327;-59
2022/06/16 12:45:26;;;;;;;7.87;4.40;;;;;;;18.10;78.44;100271.11;2031030;86;28774;-59
2022/06/16 12:48:54;;;;;;;7.45;3.55;;;;;;;18.36;78.93;100261.70;2024123;85;27676;-59
2022/06/16 12:52:01;;;;;;;6.65;3.30;;;;;;;18.75;79.54;100265.73;2029408;86;29626;-58
2022/06/16 12:55:26;;;;;;;4.20;3.17;;;;;;;19.12;79.33;100266.69;2029772;86;31758;-57
2022/06/16 12:58:37;;;;;;;6.90;3.80;;;;;;;19.41;79.18;100257.85;2054305;84;33695;-57
2022/06/16 13:01:40;;;;;;;6.65;4.17;;;;;;;19.82;79.91;100251.09;2031199;86;29332;-57
2022/06/16 13:04:44;;;;;;;5.95;3.52;;;;;;;20.18;79.83;100245.59;2031363;86;28369;-63
2022/06/16 13:07:50;;;;;;;5.12;3.37;;;;;;;20.30;78.81;100246.31;2087725;79;29474;-58
2022/06/16 13:10:57;;;;;;;6.33;3.12;;;;;;;20.25;78.22;100246.38;2168774;79;31034;-59
2022/06/16 13:14:04;;;;;;;5.85;3.30;;;;;;;20.36;78.23;100237.23;2165139;81;32970;-59
2022/06/16 13:17:10;;;;;;;4.20;3.20;;;;;;;20.29;77.98;100237.78;2159996;79;30133;-59
2022/06/16 13:20:16;;;;;;;5.55;3.40;;;;;;;20.49;79.04;100225.08;2168165;79;27670;-59
2022/06/16 13:23:43;;;;;;;4.25;3.77;;;;;;;20.76;79.68;100205.82;2155315;81;28706;-58
2022/06/16 13:27:01;;;;;;;5.30;3.12;;;;;;;21.06;79.51;100205.27;2164760;79;31028;-57
2022/06/16 13:30:12;;;;;;;4.87;3.25;;;;;;;21.22;79.37;100195.61;2158350;79;33027;-58
2022/06/16 13:33:24;;;;;;;3.85;3.12;;;;;;;21.28;78.37;100216.83;2175196;79;30046;-58
2022/06/16 13:36:36;;;;;;;5.67;3.55;;;;;;;21.40;78.52;100212.91;2181330;81;27721;-58
2022/06/16 13:39:59;;;;;;;3.20;2.90;;;;;;;21.66;79.37;100213.64;2175587;79;28820;-58
2022/06/16 13:43:18;;;;;;;5.03;3.83;;;;;;;21.85;78.99;100216.77;2170096;81;31070;-58
2022/06/16 13:46:19;;;;;;;6.03;4.87;;;;;;;21.65;78.07;100209.69;2168443;81;34368;-57
2022/06/16 13:49:48;;;;;;;3.35;3.12;;;;;;;21.88;80.10;100210.14;2184863;81;29458;-58
2022/06/16 13:53:05;;;;;;;8.10;3.92;;;;;;;22.09;80.11;100209.02;2176820;79;28320;-59
2022/06/16 13:56:14;;;;;;;5.03;3.20;;;;;;;22.28;80.65;100200.70;2174082;81;29897;-58
2022/06/16 13:59:29;;;;;;;4.80;4.28;;;;;;;22.41;80.80;100197.59;2141670;81;31721;-58
2022/06/16 14:02:32;;;;;;;6.37;4.12;;;;;;;22.43;80.13;100187.38;2183279;81;34142;-57
2022/06/16 14:05:35;;;;;;;5.12;3.70;;;;;;;22.41;78.82;100176.24;2127294;82;30655;-59
2022/06/16 14:08:43;;;;;;;7.08;4.75;;;;;;;22.31;79.01;100165.41;2102928;83;27683;-60
2022/06/16 14:12:05;;;;;;;4.80;4.25;;;;;;;22.58;80.38;100169.95;2080863;83;30933;-57
2022/06/16 14:15:11;;;;;;;5.00;4.50;;;;;;;22.84;80.84;100169.11;2116723;82;27697;-59
2022/06/16 14:18:37;;;;;;;5.03;4.50;;;;;;;23.08;81.23;100164.00;2138557;81;33058;-59
2022/06/16 14:21:49;;;;;;;4.35;3.00;;;;;;;23.10;80.22;100168.27;2130628;82;30386;-62
2022/06/16 14:25:13;;;;;;;7.35;3.37;;;;;;;23.17;79.36;100180.25;2147540;81;27728;-59
2022/06/16 14:28:24;;;;;;;7.47;3.60;;;;;;;23.37;79.37;100181.42;2125916;81;28702;-59
2022/06/16 14:31:31;;;;;;;7.50;3.52;;;;;;;23.75;80.17;100188.78;2137879;82;31024;-60
2022/06/16 14:35:08;;;;;;;5.25;3.50;;;;;;;24.12;80.03;100198.52;2134171;81;32946;-58
2022/06/16 14:38:34;;;;;;;3.77;3.05;;;;;;;24.34;77.64;100197.50;2139013;82;29329;-59
2022/06/16 14:41:46;;;;;;;5.33;3.25;;;;;;;24.57;75.04;100207.81;2130755;81;27893;-60
2022/06/16 14:45:01;;;;;;;4.45;2.80;;;;;;;24.72;74.48;100210.77;2131515;81;30020;-60
2022/06/16 14:48:18;;;;;;;6.10;3.00;;;;;;;24.75;73.10;100217.25;2063389;84;31410;-59
2022/06/16 14:51:24;;;;;;;3.30;2.58;;;;;;;24.62;70.82;100234.19;2021901;86;33037;-59